sensor_id;sensor_type;location;lat;lon;timestamp;P1;durP1;ratioP1;P2;durP2;ratioP2
19343;SDS011;9808;52.402;16.678;2023-07-29T00:02:05;8.30;;;4.60;;
19343;SDS011;9808;52.402;16.678;2023-07-29T00:04:32;9.13;;;4.85;;
19343;SDS011;9808;52.402;16.678;2023-07-29T00:06:59;12.18;;;5.15;;
19343;SDS011;9808;52.402;16.678;2023-07-29T00:09:26;8.85;;;5.00;;
19343;SDS011;9808;52.402;16.678;2023-07-29T00:11:54;11.73;;;5.35;;
19343;SDS011;9808;52.402;16.678;2023-07-29T00:14:21;15.68;;;5.13;;
19343;SDS011;9808;52.402;16.678;2023-07-29T00:16:48;8.68;;;4.18;;
19343;SDS011;9808;52.402;16.678;2023-07-29T00:19:15;8.38;;;4.20;;
19343;SDS011;9808;52.402;16.678;2023-07-29T00:21:43;9.73;;;4.25;;
19343;SDS011;9808;52.402;16.678;2023-07-29T00:24:10;11.13;;;4.32;;
19343;SDS011;9808;52.402;16.678;2023-07-29T00:26:37;8.63;;;4.55;;
19343;SDS011;9808;52.402;16.678;2023-07-29T00:29:05;9.35;;;4.88;;
19343;SDS011;9808;52.402;16.678;2023-07-29T00:31:32;10.88;;;4.50;;
19343;SDS011;9808;52.402;16.678;2023-07-29T00:33:59;11.27;;;5.25;;
19343;SDS011;9808;52.402;16.678;2023-07-29T00:36:26;8.02;;;4.88;;
19343;SDS011;9808;52.402;16.678;2023-07-29T00:38:54;10.02;;;4.80;;
19343;SDS011;9808;52.402;16.678;2023-07-29T00:41:23;10.63;;;4.85;;
19343;SDS011;9808;52.402;16.678;2023-07-29T00:43:50;7.95;;;4.45;;
19343;SDS011;9808;52.402;16.678;2023-07-29T00:46:17;10.18;;;4.78;;
19343;SDS011;9808;52.402;16.678;2023-07-29T00:48:45;11.88;;;5.40;;
19343;SDS011;9808;52.402;16.678;2023-07-29T00:51:13;13.82;;;5.13;;
19343;SDS011;9808;52.402;16.678;2023-07-29T00:53:40;9.38;;;4.32;;
19343;SDS011;9808;52.402;16.678;2023-07-29T00:56:07;7.93;;;4.35;;
19343;SDS011;9808;52.402;16.678;2023-07-29T00:58:34;8.95;;;4.70;;
19343;SDS011;9808;52.402;16.678;2023-07-29T01:01:02;10.35;;;5.30;;
19343;SDS011;9808;52.402;16.678;2023-07-29T01:03:29;8.02;;;4.40;;
19343;SDS011;9808;52.402;16.678;2023-07-29T01:11:28;9.98;;;4.80;;
19343;SDS011;9808;52.402;16.678;2023-07-29T01:14:05;8.65;;;4.30;;
19343;SDS011;9808;52.402;16.678;2023-07-29T01:16:46;9.38;;;4.68;;
19343;SDS011;9808;52.402;16.678;2023-07-29T01:21:59;11.10;;;4.50;;
19343;SDS011;9808;52.402;16.678;2023-07-29T01:24:26;7.20;;;4.15;;
19343;SDS011;9808;52.402;16.678;2023-07-29T01:26:53;11.40;;;4.45;;
19343;SDS011;9808;52.402;16.678;2023-07-29T01:29:20;11.23;;;4.55;;
19343;SDS011;9808;52.402;16.678;2023-07-29T01:31:48;9.75;;;4.07;;
19343;SDS011;9808;52.402;16.678;2023-07-29T01:34:23;10.82;;;4.22;;
19343;SDS011;9808;52.402;16.678;2023-07-29T01:36:53;8.95;;;4.50;;
19343;SDS011;9808;52.402;16.678;2023-07-29T01:39:21;7.95;;;4.90;;
19343;SDS011;9808;52.402;16.678;2023-07-29T01:41:49;9.48;;;4.80;;
19343;SDS011;9808;52.402;16.678;2023-07-29T01:44:17;8.73;;;4.78;;
19343;SDS011;9808;52.402;16.678;2023-07-29T01:46:45;9.43;;;4.57;;
19343;SDS011;9808;52.402;16.678;2023-07-29T01:49:13;9.30;;;4.88;;
19343;SDS011;9808;52.402;16.678;2023-07-29T01:51:40;9.88;;;5.07;;
19343;SDS011;9808;52.402;16.678;2023-07-29T01:54:07;14.63;;;4.53;;
19343;SDS011;9808;52.402;16.678;2023-07-29T01:56:34;8.38;;;4.85;;
19343;SDS011;9808;52.402;16.678;2023-07-29T01:59:02;9.13;;;4.63;;
19343;SDS011;9808;52.402;16.678;2023-07-29T02:01:29;9.35;;;5.13;;
19343;SDS011;9808;52.402;16.678;2023-07-29T02:03:57;10.38;;;5.20;;
19343;SDS011;9808;52.402;16.678;2023-07-29T02:06:25;11.38;;;5.25;;
19343;SDS011;9808;52.402;16.678;2023-07-29T02:08:54;12.23;;;5.50;;
19343;SDS011;9808;52.402;16.678;2023-07-29T02:11:21;11.88;;;5.18;;
19343;SDS011;9808;52.402;16.678;2023-07-29T02:13:54;7.22;;;4.10;;
19343;SDS011;9808;52.402;16.678;2023-07-29T02:16:21;11.68;;;4.85;;
19343;SDS011;9808;52.402;16.678;2023-07-29T02:18:49;9.63;;;4.65;;
19343;SDS011;9808;52.402;16.678;2023-07-29T02:21:20;7.65;;;4.10;;
19343;SDS011;9808;52.402;16.678;2023-07-29T02:23:47;12.55;;;4.38;;
19343;SDS011;9808;52.402;16.678;2023-07-29T02:26:14;8.02;;;4.90;;
19343;SDS011;9808;52.402;16.678;2023-07-29T02:28:43;12.55;;;5.28;;
19343;SDS011;9808;52.402;16.678;2023-07-29T02:31:21;10.90;;;5.65;;
19343;SDS011;9808;52.402;16.678;2023-07-29T02:33:49;11.55;;;5.65;;
19343;SDS011;9808;52.402;16.678;2023-07-29T02:36:16;10.20;;;4.50;;
19343;SDS011;9808;52.402;16.678;2023-07-29T02:38:44;10.15;;;5.82;;
19343;SDS011;9808;52.402;16.678;2023-07-29T02:41:12;9.70;;;4.85;;
19343;SDS011;9808;52.402;16.678;2023-07-29T02:43:42;10.25;;;5.22;;
19343;SDS011;9808;52.402;16.678;2023-07-29T02:46:09;10.07;;;5.25;;
19343;SDS011;9808;52.402;16.678;2023-07-29T02:48:36;10.48;;;4.90;;
19343;SDS011;9808;52.402;16.678;2023-07-29T02:51:04;10.77;;;4.97;;
19343;SDS011;9808;52.402;16.678;2023-07-29T02:53:31;9.68;;;5.05;;
19343;SDS011;9808;52.402;16.678;2023-07-29T02:55:58;11.15;;;5.60;;
19343;SDS011;9808;52.402;16.678;2023-07-29T02:58:25;9.07;;;5.20;;
19343;SDS011;9808;52.402;16.678;2023-07-29T03:00:52;10.10;;;5.35;;
19343;SDS011;9808;52.402;16.678;2023-07-29T03:03:20;9.35;;;5.10;;
19343;SDS011;9808;52.402;16.678;2023-07-29T03:05:47;13.43;;;5.70;;
19343;SDS011;9808;52.402;16.678;2023-07-29T03:08:14;12.20;;;6.40;;
19343;SDS011;9808;52.402;16.678;2023-07-29T03:10:43;10.70;;;5.43;;
19343;SDS011;9808;52.402;16.678;2023-07-29T03:13:10;9.80;;;5.00;;
19343;SDS011;9808;52.402;16.678;2023-07-29T03:15:37;9.00;;;5.30;;
19343;SDS011;9808;52.402;16.678;2023-07-29T03:18:05;14.57;;;6.22;;
19343;SDS011;9808;52.402;16.678;2023-07-29T03:20:32;13.75;;;6.47;;
19343;SDS011;9808;52.402;16.678;2023-07-29T03:22:59;9.63;;;5.63;;
19343;SDS011;9808;52.402;16.678;2023-07-29T03:25:26;13.40;;;4.97;;
19343;SDS011;9808;52.402;16.678;2023-07-29T03:27:55;10.30;;;5.43;;
19343;SDS011;9808;52.402;16.678;2023-07-29T03:30:22;10.15;;;5.10;;
19343;SDS011;9808;52.402;16.678;2023-07-29T03:32:49;12.00;;;5.05;;
19343;SDS011;9808;52.402;16.678;2023-07-29T03:35:17;10.75;;;5.55;;
19343;SDS011;9808;52.402;16.678;2023-07-29T03:37:44;8.82;;;4.65;;
19343;SDS011;9808;52.402;16.678;2023-07-29T03:40:12;8.13;;;5.07;;
19343;SDS011;9808;52.402;16.678;2023-07-29T03:42:39;8.77;;;5.28;;
19343;SDS011;9808;52.402;16.678;2023-07-29T03:45:06;8.23;;;5.15;;
19343;SDS011;9808;52.402;16.678;2023-07-29T03:47:33;8.00;;;5.07;;
19343;SDS011;9808;52.402;16.678;2023-07-29T03:50:01;7.93;;;4.75;;
19343;SDS011;9808;52.402;16.678;2023-07-29T03:52:28;9.82;;;4.68;;
19343;SDS011;9808;52.402;16.678;2023-07-29T03:54:56;7.93;;;4.45;;
19343;SDS011;9808;52.402;16.678;2023-07-29T03:57:23;7.03;;;4.35;;
19343;SDS011;9808;52.402;16.678;2023-07-29T03:59:50;7.78;;;4.88;;
19343;SDS011;9808;52.402;16.678;2023-07-29T04:02:17;8.75;;;4.85;;
19343;SDS011;9808;52.402;16.678;2023-07-29T04:04:44;8.98;;;4.75;;
19343;SDS011;9808;52.402;16.678;2023-07-29T04:07:14;9.32;;;5.00;;
19343;SDS011;9808;52.402;16.678;2023-07-29T04:09:41;8.82;;;5.00;;
19343;SDS011;9808;52.402;16.678;2023-07-29T04:12:10;7.82;;;4.63;;
19343;SDS011;9808;52.402;16.678;2023-07-29T04:14:37;11.02;;;5.35;;
19343;SDS011;9808;52.402;16.678;2023-07-29T04:17:04;8.85;;;4.65;;
19343;SDS011;9808;52.402;16.678;2023-07-29T04:19:32;8.73;;;5.40;;
19343;SDS011;9808;52.402;16.678;2023-07-29T04:21:59;7.45;;;4.75;;
19343;SDS011;9808;52.402;16.678;2023-07-29T04:24:26;11.77;;;5.78;;
19343;SDS011;9808;52.402;16.678;2023-07-29T04:26:53;9.43;;;5.93;;
19343;SDS011;9808;52.402;16.678;2023-07-29T04:29:21;12.02;;;6.53;;
19343;SDS011;9808;52.402;16.678;2023-07-29T04:31:49;10.68;;;6.43;;
19343;SDS011;9808;52.402;16.678;2023-07-29T04:34:17;11.85;;;6.40;;
19343;SDS011;9808;52.402;16.678;2023-07-29T04:36:45;10.20;;;6.43;;
19343;SDS011;9808;52.402;16.678;2023-07-29T04:39:13;12.80;;;6.90;;
19343;SDS011;9808;52.402;16.678;2023-07-29T04:41:40;20.15;;;7.65;;
19343;SDS011;9808;52.402;16.678;2023-07-29T04:44:07;21.17;;;7.68;;
19343;SDS011;9808;52.402;16.678;2023-07-29T04:46:35;10.93;;;7.00;;
19343;SDS011;9808;52.402;16.678;2023-07-29T04:49:03;24.95;;;7.57;;
19343;SDS011;9808;52.402;16.678;2023-07-29T04:51:30;16.90;;;7.93;;
19343;SDS011;9808;52.402;16.678;2023-07-29T04:54:00;11.32;;;7.90;;
19343;SDS011;9808;52.402;16.678;2023-07-29T04:56:27;24.65;;;8.07;;
19343;SDS011;9808;52.402;16.678;2023-07-29T04:58:55;26.40;;;8.05;;
19343;SDS011;9808;52.402;16.678;2023-07-29T05:01:22;15.30;;;7.80;;
19343;SDS011;9808;52.402;16.678;2023-07-29T05:03:49;16.60;;;8.27;;
19343;SDS011;9808;52.402;16.678;2023-07-29T05:06:17;29.30;;;9.23;;
19343;SDS011;9808;52.402;16.678;2023-07-29T05:08:44;19.38;;;9.13;;
19343;SDS011;9808;52.402;16.678;2023-07-29T05:11:12;19.80;;;10.05;;
19343;SDS011;9808;52.402;16.678;2023-07-29T05:13:39;27.13;;;9.15;;
19343;SDS011;9808;52.402;16.678;2023-07-29T05:16:07;35.35;;;10.25;;
19343;SDS011;9808;52.402;16.678;2023-07-29T05:18:34;26.02;;;9.98;;
19343;SDS011;9808;52.402;16.678;2023-07-29T05:21:01;32.50;;;10.20;;
19343;SDS011;9808;52.402;16.678;2023-07-29T05:23:28;29.50;;;10.70;;
19343;SDS011;9808;52.402;16.678;2023-07-29T05:25:56;23.73;;;10.15;;
19343;SDS011;9808;52.402;16.678;2023-07-29T05:28:23;34.58;;;10.73;;
19343;SDS011;9808;52.402;16.678;2023-07-29T05:30:50;21.02;;;10.30;;
19343;SDS011;9808;52.402;16.678;2023-07-29T05:33:18;26.27;;;11.38;;
19343;SDS011;9808;52.402;16.678;2023-07-29T05:35:45;17.85;;;10.02;;
19343;SDS011;9808;52.402;16.678;2023-07-29T05:38:13;21.77;;;10.68;;
19343;SDS011;9808;52.402;16.678;2023-07-29T05:40:40;16.98;;;10.27;;
19343;SDS011;9808;52.402;16.678;2023-07-29T05:43:08;18.98;;;10.65;;
19343;SDS011;9808;52.402;16.678;2023-07-29T05:45:35;27.70;;;11.05;;
19343;SDS011;9808;52.402;16.678;2023-07-29T05:48:02;17.88;;;10.68;;
19343;SDS011;9808;52.402;16.678;2023-07-29T05:50:30;33.10;;;11.27;;
19343;SDS011;9808;52.402;16.678;2023-07-29T05:52:57;17.80;;;10.77;;
19343;SDS011;9808;52.402;16.678;2023-07-29T05:55:24;26.90;;;11.93;;
19343;SDS011;9808;52.402;16.678;2023-07-29T05:57:51;20.35;;;11.55;;
19343;SDS011;9808;52.402;16.678;2023-07-29T06:00:19;28.15;;;12.68;;
19343;SDS011;9808;52.402;16.678;2023-07-29T06:02:46;20.73;;;12.68;;
19343;SDS011;9808;52.402;16.678;2023-07-29T06:05:14;20.55;;;12.40;;
19343;SDS011;9808;52.402;16.678;2023-07-29T06:07:43;21.77;;;12.80;;
19343;SDS011;9808;52.402;16.678;2023-07-29T06:10:15;20.65;;;12.88;;
19343;SDS011;9808;52.402;16.678;2023-07-29T06:12:45;19.75;;;12.50;;
19343;SDS011;9808;52.402;16.678;2023-07-29T06:15:12;16.73;;;11.77;;
19343;SDS011;9808;52.402;16.678;2023-07-29T06:17:40;19.00;;;11.70;;
19343;SDS011;9808;52.402;16.678;2023-07-29T06:20:07;17.35;;;11.52;;
19343;SDS011;9808;52.402;16.678;2023-07-29T06:22:35;15.52;;;10.60;;
19343;SDS011;9808;52.402;16.678;2023-07-29T06:25:02;15.90;;;10.93;;
19343;SDS011;9808;52.402;16.678;2023-07-29T06:27:29;14.70;;;10.18;;
19343;SDS011;9808;52.402;16.678;2023-07-29T06:29:57;12.95;;;9.82;;
19343;SDS011;9808;52.402;16.678;2023-07-29T06:32:24;13.35;;;9.02;;
19343;SDS011;9808;52.402;16.678;2023-07-29T06:34:51;10.95;;;7.88;;
19343;SDS011;9808;52.402;16.678;2023-07-29T06:37:20;12.23;;;7.93;;
19343;SDS011;9808;52.402;16.678;2023-07-29T06:39:48;11.80;;;8.73;;
19343;SDS011;9808;52.402;16.678;2023-07-29T06:42:15;10.95;;;8.10;;
19343;SDS011;9808;52.402;16.678;2023-07-29T06:44:43;13.52;;;8.27;;
19343;SDS011;9808;52.402;16.678;2023-07-29T06:47:12;9.98;;;7.70;;
19343;SDS011;9808;52.402;16.678;2023-07-29T06:49:39;11.20;;;8.32;;
19343;SDS011;9808;52.402;16.678;2023-07-29T06:52:06;11.98;;;8.15;;
19343;SDS011;9808;52.402;16.678;2023-07-29T06:54:34;11.57;;;8.57;;
19343;SDS011;9808;52.402;16.678;2023-07-29T06:57:01;11.60;;;8.20;;
19343;SDS011;9808;52.402;16.678;2023-07-29T06:59:28;11.32;;;8.43;;
19343;SDS011;9808;52.402;16.678;2023-07-29T07:01:55;11.10;;;8.32;;
19343;SDS011;9808;52.402;16.678;2023-07-29T07:04:23;11.10;;;8.60;;
19343;SDS011;9808;52.402;16.678;2023-07-29T07:06:50;11.93;;;8.73;;
19343;SDS011;9808;52.402;16.678;2023-07-29T07:09:17;12.88;;;8.65;;
19343;SDS011;9808;52.402;16.678;2023-07-29T07:11:44;13.57;;;8.40;;
19343;SDS011;9808;52.402;16.678;2023-07-29T07:14:12;12.93;;;8.23;;
19343;SDS011;9808;52.402;16.678;2023-07-29T07:16:39;14.13;;;10.07;;
19343;SDS011;9808;52.402;16.678;2023-07-29T07:19:06;12.35;;;8.73;;
19343;SDS011;9808;52.402;16.678;2023-07-29T07:21:34;11.05;;;8.35;;
19343;SDS011;9808;52.402;16.678;2023-07-29T07:24:01;12.38;;;7.88;;
19343;SDS011;9808;52.402;16.678;2023-07-29T07:26:28;11.38;;;8.25;;
19343;SDS011;9808;52.402;16.678;2023-07-29T07:28:55;11.18;;;7.78;;
19343;SDS011;9808;52.402;16.678;2023-07-29T07:31:23;10.88;;;7.40;;
19343;SDS011;9808;52.402;16.678;2023-07-29T07:33:50;15.68;;;8.10;;
19343;SDS011;9808;52.402;16.678;2023-07-29T07:36:17;10.25;;;7.22;;
19343;SDS011;9808;52.402;16.678;2023-07-29T07:38:44;9.98;;;7.13;;
19343;SDS011;9808;52.402;16.678;2023-07-29T07:41:12;10.68;;;6.95;;
19343;SDS011;9808;52.402;16.678;2023-07-29T07:43:39;14.23;;;7.63;;
19343;SDS011;9808;52.402;16.678;2023-07-29T07:46:06;9.48;;;6.80;;
19343;SDS011;9808;52.402;16.678;2023-07-29T07:48:33;11.10;;;7.18;;
19343;SDS011;9808;52.402;16.678;2023-07-29T07:51:09;9.35;;;5.93;;
19343;SDS011;9808;52.402;16.678;2023-07-29T07:53:37;8.88;;;6.70;;
19343;SDS011;9808;52.402;16.678;2023-07-29T07:56:04;9.60;;;6.60;;
19343;SDS011;9808;52.402;16.678;2023-07-29T07:58:32;8.35;;;5.65;;
19343;SDS011;9808;52.402;16.678;2023-07-29T08:01:02;7.93;;;5.55;;
19343;SDS011;9808;52.402;16.678;2023-07-29T08:03:30;8.93;;;5.90;;
19343;SDS011;9808;52.402;16.678;2023-07-29T08:05:57;9.13;;;5.70;;
19343;SDS011;9808;52.402;16.678;2023-07-29T08:08:25;8.55;;;4.93;;
19343;SDS011;9808;52.402;16.678;2023-07-29T08:10:53;5.57;;;4.15;;
19343;SDS011;9808;52.402;16.678;2023-07-29T08:13:21;6.32;;;3.97;;
19343;SDS011;9808;52.402;16.678;2023-07-29T08:15:49;5.93;;;3.33;;
19343;SDS011;9808;52.402;16.678;2023-07-29T08:18:17;5.40;;;3.50;;
19343;SDS011;9808;52.402;16.678;2023-07-29T08:20:57;6.80;;;2.97;;
19343;SDS011;9808;52.402;16.678;2023-07-29T08:23:25;5.97;;;3.55;;
19343;SDS011;9808;52.402;16.678;2023-07-29T08:25:53;5.03;;;2.97;;
19343;SDS011;9808;52.402;16.678;2023-07-29T08:28:22;4.53;;;2.80;;
19343;SDS011;9808;52.402;16.678;2023-07-29T08:30:50;5.07;;;2.95;;
19343;SDS011;9808;52.402;16.678;2023-07-29T08:33:17;4.50;;;2.78;;
19343;SDS011;9808;52.402;16.678;2023-07-29T08:35:44;4.13;;;2.80;;
19343;SDS011;9808;52.402;16.678;2023-07-29T08:38:11;4.63;;;3.17;;
19343;SDS011;9808;52.402;16.678;2023-07-29T08:40:45;5.50;;;2.95;;
19343;SDS011;9808;52.402;16.678;2023-07-29T08:43:13;4.63;;;2.97;;
19343;SDS011;9808;52.402;16.678;2023-07-29T08:45:41;5.10;;;3.10;;
19343;SDS011;9808;52.402;16.678;2023-07-29T08:48:09;7.88;;;3.30;;
19343;SDS011;9808;52.402;16.678;2023-07-29T08:50:37;8.30;;;3.15;;
19343;SDS011;9808;52.402;16.678;2023-07-29T08:53:05;4.95;;;2.97;;
19343;SDS011;9808;52.402;16.678;2023-07-29T08:55:32;4.57;;;2.47;;
19343;SDS011;9808;52.402;16.678;2023-07-29T08:57:59;4.00;;;2.70;;
19343;SDS011;9808;52.402;16.678;2023-07-29T09:00:27;8.18;;;3.03;;
19343;SDS011;9808;52.402;16.678;2023-07-29T09:02:54;5.63;;;3.10;;
19343;SDS011;9808;52.402;16.678;2023-07-29T09:05:24;6.43;;;3.60;;
19343;SDS011;9808;52.402;16.678;2023-07-29T09:07:51;8.27;;;3.30;;
19343;SDS011;9808;52.402;16.678;2023-07-29T09:10:24;5.22;;;2.80;;
19343;SDS011;9808;52.402;16.678;2023-07-29T09:12:52;3.75;;;2.42;;
19343;SDS011;9808;52.402;16.678;2023-07-29T09:15:30;5.32;;;2.97;;
19343;SDS011;9808;52.402;16.678;2023-07-29T09:17:58;4.03;;;2.67;;
19343;SDS011;9808;52.402;16.678;2023-07-29T09:20:28;5.43;;;3.08;;
19343;SDS011;9808;52.402;16.678;2023-07-29T09:22:58;6.20;;;2.70;;
19343;SDS011;9808;52.402;16.678;2023-07-29T09:25:28;5.38;;;2.80;;
19343;SDS011;9808;52.402;16.678;2023-07-29T09:27:59;5.80;;;2.67;;
19343;SDS011;9808;52.402;16.678;2023-07-29T09:30:27;5.07;;;2.90;;
19343;SDS011;9808;52.402;16.678;2023-07-29T09:32:57;7.95;;;2.88;;
19343;SDS011;9808;52.402;16.678;2023-07-29T09:35:27;5.30;;;2.80;;
19343;SDS011;9808;52.402;16.678;2023-07-29T09:37:55;4.65;;;2.60;;
19343;SDS011;9808;52.402;16.678;2023-07-29T09:40:22;5.60;;;2.60;;
19343;SDS011;9808;52.402;16.678;2023-07-29T09:42:50;8.00;;;2.75;;
19343;SDS011;9808;52.402;16.678;2023-07-29T09:45:24;4.78;;;2.63;;
19343;SDS011;9808;52.402;16.678;2023-07-29T09:47:52;5.57;;;2.35;;
19343;SDS011;9808;52.402;16.678;2023-07-29T09:50:23;4.45;;;2.65;;
19343;SDS011;9808;52.402;16.678;2023-07-29T09:52:51;4.45;;;2.60;;
19343;SDS011;9808;52.402;16.678;2023-07-29T09:55:19;7.60;;;2.58;;
19343;SDS011;9808;52.402;16.678;2023-07-29T09:57:46;6.30;;;2.83;;
19343;SDS011;9808;52.402;16.678;2023-07-29T10:00:14;4.15;;;2.75;;
19343;SDS011;9808;52.402;16.678;2023-07-29T10:02:41;4.03;;;2.70;;
19343;SDS011;9808;52.402;16.678;2023-07-29T10:05:09;6.32;;;3.70;;
19343;SDS011;9808;52.402;16.678;2023-07-29T10:07:37;6.97;;;2.80;;
19343;SDS011;9808;52.402;16.678;2023-07-29T10:10:05;4.93;;;2.47;;
19343;SDS011;9808;52.402;16.678;2023-07-29T10:12:34;5.00;;;2.55;;
19343;SDS011;9808;52.402;16.678;2023-07-29T10:15:05;3.83;;;2.53;;
19343;SDS011;9808;52.402;16.678;2023-07-29T10:17:34;4.97;;;2.47;;
19343;SDS011;9808;52.402;16.678;2023-07-29T10:20:03;4.18;;;2.65;;
19343;SDS011;9808;52.402;16.678;2023-07-29T10:22:33;4.55;;;2.67;;
19343;SDS011;9808;52.402;16.678;2023-07-29T10:25:02;4.75;;;2.95;;
19343;SDS011;9808;52.402;16.678;2023-07-29T10:27:33;4.95;;;2.60;;
19343;SDS011;9808;52.402;16.678;2023-07-29T10:30:02;4.50;;;2.80;;
19343;SDS011;9808;52.402;16.678;2023-07-29T10:32:29;6.68;;;2.90;;
19343;SDS011;9808;52.402;16.678;2023-07-29T10:34:58;3.42;;;2.45;;
19343;SDS011;9808;52.402;16.678;2023-07-29T10:37:25;3.28;;;2.50;;
19343;SDS011;9808;52.402;16.678;2023-07-29T10:39:56;4.43;;;2.50;;
19343;SDS011;9808;52.402;16.678;2023-07-29T10:42:23;4.43;;;2.75;;
19343;SDS011;9808;52.402;16.678;2023-07-29T10:44:51;4.20;;;2.63;;
19343;SDS011;9808;52.402;16.678;2023-07-29T10:47:19;4.88;;;2.70;;
19343;SDS011;9808;52.402;16.678;2023-07-29T10:49:50;4.07;;;2.38;;
19343;SDS011;9808;52.402;16.678;2023-07-29T10:55:03;4.53;;;2.70;;
19343;SDS011;9808;52.402;16.678;2023-07-29T10:57:32;4.80;;;2.53;;
19343;SDS011;9808;52.402;16.678;2023-07-29T10:59:59;4.28;;;2.40;;
19343;SDS011;9808;52.402;16.678;2023-07-29T11:02:31;3.83;;;2.20;;
19343;SDS011;9808;52.402;16.678;2023-07-29T11:04:58;3.38;;;2.13;;
19343;SDS011;9808;52.402;16.678;2023-07-29T11:07:26;3.20;;;2.20;;
19343;SDS011;9808;52.402;16.678;2023-07-29T11:09:58;4.70;;;2.30;;
19343;SDS011;9808;52.402;16.678;2023-07-29T11:17:39;3.42;;;2.13;;
19343;SDS011;9808;52.402;16.678;2023-07-29T11:20:07;6.50;;;2.10;;
19343;SDS011;9808;52.402;16.678;2023-07-29T11:22:35;4.05;;;2.20;;
19343;SDS011;9808;52.402;16.678;2023-07-29T11:25:03;3.45;;;2.20;;
19343;SDS011;9808;52.402;16.678;2023-07-29T11:27:31;6.07;;;2.47;;
19343;SDS011;9808;52.402;16.678;2023-07-29T11:30:02;3.50;;;2.28;;
19343;SDS011;9808;52.402;16.678;2023-07-29T11:32:32;5.25;;;2.40;;
19343;SDS011;9808;52.402;16.678;2023-07-29T11:35:03;3.53;;;2.10;;
19343;SDS011;9808;52.402;16.678;2023-07-29T11:37:32;4.32;;;1.63;;
19343;SDS011;9808;52.402;16.678;2023-07-29T11:39:59;2.88;;;1.90;;
19343;SDS011;9808;52.402;16.678;2023-07-29T11:42:27;2.47;;;1.85;;
19343;SDS011;9808;52.402;16.678;2023-07-29T11:44:58;3.33;;;2.10;;
19343;SDS011;9808;52.402;16.678;2023-07-29T11:47:25;3.45;;;1.95;;
19343;SDS011;9808;52.402;16.678;2023-07-29T11:49:53;3.25;;;1.90;;
19343;SDS011;9808;52.402;16.678;2023-07-29T11:52:20;3.25;;;1.80;;
19343;SDS011;9808;52.402;16.678;2023-07-29T11:54:48;2.70;;;1.58;;
19343;SDS011;9808;52.402;16.678;2023-07-29T11:57:16;4.45;;;1.52;;
19343;SDS011;9808;52.402;16.678;2023-07-29T11:59:44;2.08;;;1.42;;
19343;SDS011;9808;52.402;16.678;2023-07-29T12:02:15;1.70;;;1.23;;
19343;SDS011;9808;52.402;16.678;2023-07-29T12:04:43;2.00;;;1.45;;
19343;SDS011;9808;52.402;16.678;2023-07-29T12:07:13;5.22;;;1.70;;
19343;SDS011;9808;52.402;16.678;2023-07-29T12:09:41;5.10;;;1.50;;
19343;SDS011;9808;52.402;16.678;2023-07-29T12:12:09;3.83;;;1.52;;
19343;SDS011;9808;52.402;16.678;2023-07-29T12:14:36;3.67;;;1.33;;
19343;SDS011;9808;52.402;16.678;2023-07-29T12:17:04;4.15;;;1.70;;
19343;SDS011;9808;52.402;16.678;2023-07-29T12:22:03;8.13;;;1.83;;
19343;SDS011;9808;52.402;16.678;2023-07-29T12:24:31;2.22;;;1.50;;
19343;SDS011;9808;52.402;16.678;2023-07-29T12:26:58;5.05;;;1.80;;
19343;SDS011;9808;52.402;16.678;2023-07-29T12:29:26;2.78;;;1.50;;
19343;SDS011;9808;52.402;16.678;2023-07-29T12:31:57;2.65;;;1.50;;
19343;SDS011;9808;52.402;16.678;2023-07-29T12:34:26;2.80;;;1.50;;
19343;SDS011;9808;52.402;16.678;2023-07-29T12:36:57;2.22;;;1.30;;
19343;SDS011;9808;52.402;16.678;2023-07-29T12:39:25;3.00;;;1.67;;
19343;SDS011;9808;52.402;16.678;2023-07-29T12:41:54;3.05;;;1.60;;
19343;SDS011;9808;52.402;16.678;2023-07-29T12:44:25;4.18;;;1.73;;
19343;SDS011;9808;52.402;16.678;2023-07-29T12:46:52;2.10;;;1.40;;
19343;SDS011;9808;52.402;16.678;2023-07-29T12:49:20;1.83;;;1.30;;
19343;SDS011;9808;52.402;16.678;2023-07-29T12:51:47;2.40;;;1.40;;
19343;SDS011;9808;52.402;16.678;2023-07-29T12:54:14;1.58;;;1.27;;
19343;SDS011;9808;52.402;16.678;2023-07-29T12:56:43;2.33;;;1.50;;
19343;SDS011;9808;52.402;16.678;2023-07-29T12:59:10;1.95;;;1.40;;
19343;SDS011;9808;52.402;16.678;2023-07-29T13:01:37;3.30;;;1.60;;
19343;SDS011;9808;52.402;16.678;2023-07-29T13:04:04;2.92;;;1.60;;
19343;SDS011;9808;52.402;16.678;2023-07-29T13:06:32;3.00;;;1.77;;
19343;SDS011;9808;52.402;16.678;2023-07-29T13:08:59;3.72;;;1.60;;
19343;SDS011;9808;52.402;16.678;2023-07-29T13:11:26;3.22;;;1.60;;
19343;SDS011;9808;52.402;16.678;2023-07-29T13:13:53;3.88;;;1.60;;
19343;SDS011;9808;52.402;16.678;2023-07-29T13:16:21;2.30;;;1.60;;
19343;SDS011;9808;52.402;16.678;2023-07-29T13:18:48;3.55;;;1.42;;
19343;SDS011;9808;52.402;16.678;2023-07-29T13:21:15;2.88;;;1.60;;
19343;SDS011;9808;52.402;16.678;2023-07-29T13:23:42;2.75;;;1.63;;
19343;SDS011;9808;52.402;16.678;2023-07-29T13:26:10;5.63;;;1.50;;
19343;SDS011;9808;52.402;16.678;2023-07-29T13:28:37;2.42;;;1.58;;
19343;SDS011;9808;52.402;16.678;2023-07-29T13:31:04;3.05;;;1.60;;
19343;SDS011;9808;52.402;16.678;2023-07-29T13:33:32;3.28;;;1.50;;
19343;SDS011;9808;52.402;16.678;2023-07-29T13:36:00;2.35;;;1.40;;
19343;SDS011;9808;52.402;16.678;2023-07-29T13:38:31;4.38;;;1.50;;
19343;SDS011;9808;52.402;16.678;2023-07-29T13:40:58;5.10;;;1.70;;
19343;SDS011;9808;52.402;16.678;2023-07-29T13:43:25;5.28;;;1.60;;
19343;SDS011;9808;52.402;16.678;2023-07-29T13:45:52;3.42;;;1.73;;
19343;SDS011;9808;52.402;16.678;2023-07-29T13:48:20;5.55;;;1.60;;
19343;SDS011;9808;52.402;16.678;2023-07-29T13:50:47;4.80;;;1.30;;
19343;SDS011;9808;52.402;16.678;2023-07-29T13:53:14;8.13;;;1.52;;
19343;SDS011;9808;52.402;16.678;2023-07-29T13:55:41;6.47;;;1.27;;
19343;SDS011;9808;52.402;16.678;2023-07-29T13:58:09;6.05;;;1.70;;
19343;SDS011;9808;52.402;16.678;2023-07-29T14:00:36;8.32;;;1.60;;
19343;SDS011;9808;52.402;16.678;2023-07-29T14:03:03;4.78;;;1.63;;
19343;SDS011;9808;52.402;16.678;2023-07-29T14:05:31;7.15;;;1.83;;
19343;SDS011;9808;52.402;16.678;2023-07-29T14:07:58;9.15;;;1.85;;
19343;SDS011;9808;52.402;16.678;2023-07-29T14:10:25;7.97;;;1.70;;
19343;SDS011;9808;52.402;16.678;2023-07-29T14:12:52;5.80;;;1.77;;
19343;SDS011;9808;52.402;16.678;2023-07-29T14:15:20;7.53;;;2.00;;
19343;SDS011;9808;52.402;16.678;2023-07-29T14:17:47;4.75;;;1.48;;
19343;SDS011;9808;52.402;16.678;2023-07-29T14:20:15;3.92;;;1.80;;
19343;SDS011;9808;52.402;16.678;2023-07-29T14:22:42;6.97;;;1.88;;
19343;SDS011;9808;52.402;16.678;2023-07-29T14:25:10;3.25;;;1.23;;
19343;SDS011;9808;52.402;16.678;2023-07-29T14:27:37;3.22;;;1.33;;
19343;SDS011;9808;52.402;16.678;2023-07-29T14:30:05;3.70;;;1.40;;
19343;SDS011;9808;52.402;16.678;2023-07-29T14:32:33;2.78;;;1.30;;
19343;SDS011;9808;52.402;16.678;2023-07-29T14:35:00;3.80;;;1.35;;
19343;SDS011;9808;52.402;16.678;2023-07-29T14:37:30;4.97;;;1.85;;
19343;SDS011;9808;52.402;16.678;2023-07-29T14:39:58;2.47;;;1.17;;
19343;SDS011;9808;52.402;16.678;2023-07-29T14:42:26;3.80;;;1.50;;
19343;SDS011;9808;52.402;16.678;2023-07-29T14:44:53;4.43;;;1.77;;
19343;SDS011;9808;52.402;16.678;2023-07-29T14:47:21;3.05;;;1.30;;
19343;SDS011;9808;52.402;16.678;2023-07-29T14:49:48;4.20;;;1.58;;
19343;SDS011;9808;52.402;16.678;2023-07-29T14:52:15;5.38;;;1.40;;
19343;SDS011;9808;52.402;16.678;2023-07-29T14:54:42;3.35;;;1.50;;
19343;SDS011;9808;52.402;16.678;2023-07-29T14:57:10;5.22;;;2.30;;
19343;SDS011;9808;52.402;16.678;2023-07-29T14:59:38;4.35;;;1.70;;
19343;SDS011;9808;52.402;16.678;2023-07-29T15:02:05;3.53;;;1.58;;
19343;SDS011;9808;52.402;16.678;2023-07-29T15:04:33;2.92;;;1.30;;
19343;SDS011;9808;52.402;16.678;2023-07-29T15:07:01;2.53;;;1.75;;